sensor_id;sensor_type;location;lat;lon;timestamp;P1;durP1;ratioP1;P2;durP2;ratioP2
60432;SDS011;46286;48.098;11.590;2023-01-28T00:00:30;32.30;;;12.70;;
60432;SDS011;46286;48.098;11.590;2023-01-28T00:03:16;34.95;;;13.13;;
60432;SDS011;46286;48.098;11.590;2023-01-28T00:05:42;30.38;;;12.75;;
60432;SDS011;46286;48.098;11.590;2023-01-28T00:08:07;31.85;;;13.10;;
60432;SDS011;46286;48.098;11.590;2023-01-28T00:10:33;29.48;;;12.73;;
60432;SDS011;46286;48.098;11.590;2023-01-28T00:12:58;35.80;;;14.00;;
60432;SDS011;46286;48.098;11.590;2023-01-28T00:15:24;30.70;;;12.90;;
60432;SDS011;46286;48.098;11.590;2023-01-28T00:17:50;32.10;;;12.82;;
60432;SDS011;46286;48.098;11.590;2023-01-28T00:20:16;34.22;;;12.25;;
60432;SDS011;46286;48.098;11.590;2023-01-28T00:22:46;35.67;;;12.85;;
60432;SDS011;46286;48.098;11.590;2023-01-28T00:25:13;32.53;;;13.18;;
60432;SDS011;46286;48.098;11.590;2023-01-28T00:27:39;34.90;;;12.38;;
60432;SDS011;46286;48.098;11.590;2023-01-28T00:30:05;32.75;;;13.48;;
60432;SDS011;46286;48.098;11.590;2023-01-28T00:32:31;35.28;;;14.73;;
60432;SDS011;46286;48.098;11.590;2023-01-28T00:34:57;29.38;;;11.50;;
60432;SDS011;46286;48.098;11.590;2023-01-28T00:37:22;30.75;;;12.55;;
60432;SDS011;46286;48.098;11.590;2023-01-28T00:39:48;29.88;;;12.68;;
60432;SDS011;46286;48.098;11.590;2023-01-28T00:42:13;33.85;;;13.07;;
60432;SDS011;46286;48.098;11.590;2023-01-28T00:44:39;35.92;;;13.60;;
60432;SDS011;46286;48.098;11.590;2023-01-28T00:47:04;37.97;;;14.07;;
60432;SDS011;46286;48.098;11.590;2023-01-28T00:49:30;38.55;;;13.02;;
60432;SDS011;46286;48.098;11.590;2023-01-28T00:51:55;35.13;;;13.77;;
60432;SDS011;46286;48.098;11.590;2023-01-28T00:54:21;30.50;;;12.40;;
60432;SDS011;46286;48.098;11.590;2023-01-28T00:56:46;28.60;;;12.13;;
60432;SDS011;46286;48.098;11.590;2023-01-28T00:59:12;33.47;;;12.38;;
60432;SDS011;46286;48.098;11.590;2023-01-28T01:01:38;36.33;;;14.10;;
60432;SDS011;46286;48.098;11.590;2023-01-28T01:04:03;32.22;;;14.07;;
60432;SDS011;46286;48.098;11.590;2023-01-28T01:06:31;38.78;;;14.70;;
60432;SDS011;46286;48.098;11.590;2023-01-28T01:09:02;28.35;;;12.35;;
60432;SDS011;46286;48.098;11.590;2023-01-28T01:11:29;35.08;;;13.10;;
60432;SDS011;46286;48.098;11.590;2023-01-28T01:13:58;31.48;;;13.45;;
60432;SDS011;46286;48.098;11.590;2023-01-28T01:16:25;31.08;;;10.40;;
60432;SDS011;46286;48.098;11.590;2023-01-28T01:18:53;33.03;;;12.35;;
60432;SDS011;46286;48.098;11.590;2023-01-28T01:21:20;35.60;;;12.75;;
60432;SDS011;46286;48.098;11.590;2023-01-28T01:23:48;34.35;;;13.32;;
60432;SDS011;46286;48.098;11.590;2023-01-28T01:26:14;30.20;;;12.80;;
60432;SDS011;46286;48.098;11.590;2023-01-28T01:28:39;38.28;;;13.65;;
60432;SDS011;46286;48.098;11.590;2023-01-28T01:31:15;31.08;;;13.70;;
60432;SDS011;46286;48.098;11.590;2023-01-28T01:33:43;34.15;;;12.18;;
60432;SDS011;46286;48.098;11.590;2023-01-28T01:36:11;31.83;;;11.70;;
60432;SDS011;46286;48.098;11.590;2023-01-28T01:38:39;29.70;;;12.68;;
60432;SDS011;46286;48.098;11.590;2023-01-28T01:41:05;29.70;;;11.15;;
60432;SDS011;46286;48.098;11.590;2023-01-28T01:43:48;36.78;;;12.82;;
60432;SDS011;46286;48.098;11.590;2023-01-28T01:46:26;32.60;;;13.18;;
60432;SDS011;46286;48.098;11.590;2023-01-28T01:49:00;33.22;;;12.35;;
60432;SDS011;46286;48.098;11.590;2023-01-28T01:51:31;33.53;;;13.00;;
60432;SDS011;46286;48.098;11.590;2023-01-28T01:53:58;32.05;;;12.57;;
60432;SDS011;46286;48.098;11.590;2023-01-28T01:56:27;35.20;;;13.60;;
60432;SDS011;46286;48.098;11.590;2023-01-28T01:58:57;27.88;;;12.63;;
60432;SDS011;46286;48.098;11.590;2023-01-28T02:01:24;39.35;;;13.55;;
60432;SDS011;46286;48.098;11.590;2023-01-28T02:04:00;35.10;;;13.73;;
60432;SDS011;46286;48.098;11.590;2023-01-28T02:06:30;34.95;;;14.13;;
60432;SDS011;46286;48.098;11.590;2023-01-28T02:08:57;33.67;;;12.55;;
60432;SDS011;46286;48.098;11.590;2023-01-28T02:11:24;32.90;;;13.13;;
60432;SDS011;46286;48.098;11.590;2023-01-28T02:13:53;33.90;;;13.75;;
60432;SDS011;46286;48.098;11.590;2023-01-28T02:16:22;34.78;;;13.32;;
60432;SDS011;46286;48.098;11.590;2023-01-28T02:18:49;33.33;;;13.10;;
60432;SDS011;46286;48.098;11.590;2023-01-28T02:32:59;31.75;;;12.38;;
60432;SDS011;46286;48.098;11.590;2023-01-28T02:35:46;31.55;;;12.32;;
60432;SDS011;46286;48.098;11.590;2023-01-28T02:38:15;31.35;;;11.85;;
60432;SDS011;46286;48.098;11.590;2023-01-28T02:40:49;35.25;;;12.95;;
60432;SDS011;46286;48.098;11.590;2023-01-28T02:43:34;33.75;;;14.10;;
60432;SDS011;46286;48.098;11.590;2023-01-28T02:52:21;34.83;;;13.65;;
60432;SDS011;46286;48.098;11.590;2023-01-28T02:55:51;30.87;;;12.97;;
60432;SDS011;46286;48.098;11.590;2023-01-28T03:00:45;33.20;;;12.32;;
60432;SDS011;46286;48.098;11.590;2023-01-28T03:03:18;34.70;;;12.63;;
60432;SDS011;46286;48.098;11.590;2023-01-28T03:05:48;31.50;;;11.60;;
60432;SDS011;46286;48.098;11.590;2023-01-28T03:08:30;34.83;;;13.43;;
60432;SDS011;46286;48.098;11.590;2023-01-28T03:11:22;30.70;;;12.65;;
60432;SDS011;46286;48.098;11.590;2023-01-28T03:14:07;36.83;;;13.82;;
60432;SDS011;46286;48.098;11.590;2023-01-28T03:16:52;27.25;;;11.60;;
60432;SDS011;46286;48.098;11.590;2023-01-28T03:19:40;36.75;;;13.35;;
60432;SDS011;46286;48.098;11.590;2023-01-28T03:22:24;34.45;;;11.68;;
60432;SDS011;46286;48.098;11.590;2023-01-28T03:25:09;31.23;;;12.80;;
60432;SDS011;46286;48.098;11.590;2023-01-28T03:27:59;37.38;;;12.77;;
60432;SDS011;46286;48.098;11.590;2023-01-28T03:30:53;32.28;;;12.38;;
60432;SDS011;46286;48.098;11.590;2023-01-28T03:33:38;40.17;;;15.32;;
60432;SDS011;46286;48.098;11.590;2023-01-28T03:36:24;33.10;;;13.40;;
60432;SDS011;46286;48.098;11.590;2023-01-28T03:39:09;35.35;;;13.60;;
60432;SDS011;46286;48.098;11.590;2023-01-28T03:41:34;38.83;;;13.57;;
60432;SDS011;46286;48.098;11.590;2023-01-28T03:44:00;32.65;;;13.15;;
60432;SDS011;46286;48.098;11.590;2023-01-28T03:46:44;30.77;;;12.35;;
60432;SDS011;46286;48.098;11.590;2023-01-28T03:49:09;35.53;;;12.95;;
60432;SDS011;46286;48.098;11.590;2023-01-28T03:51:35;36.25;;;12.25;;
60432;SDS011;46286;48.098;11.590;2023-01-28T03:54:00;35.15;;;14.05;;
60432;SDS011;46286;48.098;11.590;2023-01-28T03:56:27;31.88;;;12.50;;
60432;SDS011;46286;48.098;11.590;2023-01-28T03:58:56;30.63;;;12.82;;
60432;SDS011;46286;48.098;11.590;2023-01-28T04:01:22;39.83;;;13.50;;
60432;SDS011;46286;48.098;11.590;2023-01-28T04:03:48;36.90;;;12.85;;
60432;SDS011;46286;48.098;11.590;2023-01-28T04:06:13;33.42;;;12.82;;
60432;SDS011;46286;48.098;11.590;2023-01-28T04:08:39;31.70;;;11.88;;
60432;SDS011;46286;48.098;11.590;2023-01-28T04:11:20;40.38;;;15.18;;
60432;SDS011;46286;48.098;11.590;2023-01-28T04:13:47;30.13;;;11.95;;
60432;SDS011;46286;48.098;11.590;2023-01-28T04:16:14;32.55;;;11.82;;
60432;SDS011;46286;48.098;11.590;2023-01-28T04:18:41;35.78;;;13.90;;
60432;SDS011;46286;48.098;11.590;2023-01-28T04:21:08;35.63;;;13.32;;
60432;SDS011;46286;48.098;11.590;2023-01-28T04:23:33;36.78;;;12.60;;
60432;SDS011;46286;48.098;11.590;2023-01-28T04:25:59;33.03;;;12.98;;
60432;SDS011;46286;48.098;11.590;2023-01-28T04:28:25;35.00;;;12.70;;
60432;SDS011;46286;48.098;11.590;2023-01-28T04:30:51;32.88;;;11.85;;
60432;SDS011;46286;48.098;11.590;2023-01-28T04:33:16;32.35;;;12.30;;
60432;SDS011;46286;48.098;11.590;2023-01-28T04:35:43;36.22;;;13.50;;
60432;SDS011;46286;48.098;11.590;2023-01-28T04:38:08;33.25;;;12.27;;
60432;SDS011;46286;48.098;11.590;2023-01-28T04:40:34;35.75;;;13.55;;
60432;SDS011;46286;48.098;11.590;2023-01-28T04:42:59;31.73;;;13.00;;
60432;SDS011;46286;48.098;11.590;2023-01-28T04:45:25;32.35;;;12.63;;
60432;SDS011;46286;48.098;11.590;2023-01-28T04:47:50;36.55;;;14.23;;
60432;SDS011;46286;48.098;11.590;2023-01-28T04:50:16;36.58;;;13.98;;
60432;SDS011;46286;48.098;11.590;2023-01-28T04:52:41;34.97;;;14.07;;
60432;SDS011;46286;48.098;11.590;2023-01-28T04:55:07;34.65;;;12.88;;
60432;SDS011;46286;48.098;11.590;2023-01-28T04:57:34;36.58;;;13.88;;
60432;SDS011;46286;48.098;11.590;2023-01-28T05:00:00;37.10;;;13.18;;
60432;SDS011;46286;48.098;11.590;2023-01-28T05:02:25;39.90;;;13.63;;
60432;SDS011;46286;48.098;11.590;2023-01-28T05:04:51;35.13;;;12.57;;
60432;SDS011;46286;48.098;11.590;2023-01-28T05:07:16;37.50;;;12.98;;
60432;SDS011;46286;48.098;11.590;2023-01-28T05:09:42;30.75;;;12.25;;
60432;SDS011;46286;48.098;11.590;2023-01-28T05:12:07;38.55;;;13.57;;
60432;SDS011;46286;48.098;11.590;2023-01-28T05:14:33;31.95;;;12.32;;
60432;SDS011;46286;48.098;11.590;2023-01-28T05:16:58;38.42;;;13.15;;
60432;SDS011;46286;48.098;11.590;2023-01-28T05:19:24;35.63;;;13.10;;
60432;SDS011;46286;48.098;11.590;2023-01-28T05:21:49;28.63;;;12.00;;
60432;SDS011;46286;48.098;11.590;2023-01-28T05:24:15;32.10;;;12.88;;
60432;SDS011;46286;48.098;11.590;2023-01-28T05:26:40;34.45;;;13.65;;
60432;SDS011;46286;48.098;11.590;2023-01-28T05:29:06;33.45;;;12.98;;
60432;SDS011;46286;48.098;11.590;2023-01-28T05:31:32;36.58;;;13.15;;
60432;SDS011;46286;48.098;11.590;2023-01-28T05:33:58;27.92;;;10.85;;
60432;SDS011;46286;48.098;11.590;2023-01-28T05:36:24;35.90;;;12.82;;
60432;SDS011;46286;48.098;11.590;2023-01-28T05:38:49;32.08;;;11.57;;
60432;SDS011;46286;48.098;11.590;2023-01-28T05:41:15;37.53;;;13.02;;
60432;SDS011;46286;48.098;11.590;2023-01-28T05:43:41;33.63;;;13.27;;
60432;SDS011;46286;48.098;11.590;2023-01-28T05:46:06;36.13;;;13.55;;
60432;SDS011;46286;48.098;11.590;2023-01-28T05:48:32;34.85;;;13.05;;
60432;SDS011;46286;48.098;11.590;2023-01-28T05:50:57;35.65;;;12.77;;
60432;SDS011;46286;48.098;11.590;2023-01-28T05:53:23;36.70;;;12.90;;
60432;SDS011;46286;48.098;11.590;2023-01-28T05:55:49;32.97;;;12.57;;
60432;SDS011;46286;48.098;11.590;2023-01-28T05:58:16;33.13;;;13.38;;
60432;SDS011;46286;48.098;11.590;2023-01-28T06:00:41;33.53;;;11.63;;
60432;SDS011;46286;48.098;11.590;2023-01-28T06:03:07;39.00;;;13.43;;
60432;SDS011;46286;48.098;11.590;2023-01-28T06:05:33;32.80;;;12.10;;
60432;SDS011;46286;48.098;11.590;2023-01-28T06:07:58;31.77;;;12.05;;
60432;SDS011;46286;48.098;11.590;2023-01-28T06:10:24;29.35;;;11.32;;
60432;SDS011;46286;48.098;11.590;2023-01-28T06:12:50;33.60;;;11.93;;
60432;SDS011;46286;48.098;11.590;2023-01-28T06:15:15;29.00;;;11.38;;
60432;SDS011;46286;48.098;11.590;2023-01-28T06:17:41;28.05;;;11.80;;
60432;SDS011;46286;48.098;11.590;2023-01-28T06:20:06;28.90;;;11.50;;
60432;SDS011;46286;48.098;11.590;2023-01-28T06:22:33;32.88;;;12.40;;
60432;SDS011;46286;48.098;11.590;2023-01-28T06:24:58;29.40;;;11.20;;
60432;SDS011;46286;48.098;11.590;2023-01-28T06:27:24;34.20;;;11.95;;
60432;SDS011;46286;48.098;11.590;2023-01-28T06:29:49;26.98;;;10.15;;
60432;SDS011;46286;48.098;11.590;2023-01-28T06:32:15;27.25;;;10.80;;
60432;SDS011;46286;48.098;11.590;2023-01-28T06:34:40;32.97;;;12.65;;
60432;SDS011;46286;48.098;11.590;2023-01-28T06:37:06;30.67;;;10.98;;
60432;SDS011;46286;48.098;11.590;2023-01-28T06:39:32;31.40;;;11.82;;
60432;SDS011;46286;48.098;11.590;2023-01-28T06:41:58;34.58;;;12.27;;
60432;SDS011;46286;48.098;11.590;2023-01-28T06:44:24;32.83;;;12.77;;
60432;SDS011;46286;48.098;11.590;2023-01-28T06:46:50;33.92;;;11.80;;
60432;SDS011;46286;48.098;11.590;2023-01-28T06:49:15;31.50;;;10.63;;
60432;SDS011;46286;48.098;11.590;2023-01-28T06:51:41;32.30;;;11.35;;
60432;SDS011;46286;48.098;11.590;2023-01-28T06:54:06;26.98;;;11.05;;
60432;SDS011;46286;48.098;11.590;2023-01-28T06:56:32;32.03;;;12.25;;
60432;SDS011;46286;48.098;11.590;2023-01-28T06:58:58;28.00;;;11.07;;
60432;SDS011;46286;48.098;11.590;2023-01-28T07:01:23;30.35;;;11.60;;
60432;SDS011;46286;48.098;11.590;2023-01-28T07:03:49;34.35;;;12.68;;
60432;SDS011;46286;48.098;11.590;2023-01-28T07:06:14;31.23;;;11.75;;
60432;SDS011;46286;48.098;11.590;2023-01-28T07:08:40;31.23;;;10.98;;
60432;SDS011;46286;48.098;11.590;2023-01-28T07:11:06;33.05;;;12.25;;
60432;SDS011;46286;48.098;11.590;2023-01-28T07:13:32;29.92;;;10.98;;
60432;SDS011;46286;48.098;11.590;2023-01-28T07:15:58;26.55;;;11.20;;
60432;SDS011;46286;48.098;11.590;2023-01-28T07:18:23;28.90;;;11.18;;
60432;SDS011;46286;48.098;11.590;2023-01-28T07:20:49;40.15;;;12.75;;
60432;SDS011;46286;48.098;11.590;2023-01-28T07:23:14;32.55;;;11.93;;
60432;SDS011;46286;48.098;11.590;2023-01-28T07:25:40;34.88;;;14.15;;
60432;SDS011;46286;48.098;11.590;2023-01-28T07:28:05;35.70;;;12.85;;
60432;SDS011;46286;48.098;11.590;2023-01-28T07:30:31;36.22;;;13.73;;
60432;SDS011;46286;48.098;11.590;2023-01-28T07:32:57;34.13;;;12.82;;
60432;SDS011;46286;48.098;11.590;2023-01-28T07:35:24;30.55;;;11.65;;
60432;SDS011;46286;48.098;11.590;2023-01-28T07:37:54;33.95;;;12.00;;
60432;SDS011;46286;48.098;11.590;2023-01-28T07:40:21;25.48;;;11.02;;
60432;SDS011;46286;48.098;11.590;2023-01-28T07:42:48;32.83;;;12.40;;
60432;SDS011;46286;48.098;11.590;2023-01-28T07:45:14;31.67;;;12.15;;
60432;SDS011;46286;48.098;11.590;2023-01-28T07:47:39;31.80;;;12.70;;
60432;SDS011;46286;48.098;11.590;2023-01-28T07:50:05;29.05;;;9.90;;
60432;SDS011;46286;48.098;11.590;2023-01-28T07:52:31;34.05;;;13.88;;
60432;SDS011;46286;48.098;11.590;2023-01-28T07:55:03;33.42;;;12.63;;
60432;SDS011;46286;48.098;11.590;2023-01-28T07:57:29;35.17;;;12.40;;
60432;SDS011;46286;48.098;11.590;2023-01-28T07:59:54;29.35;;;12.23;;
60432;SDS011;46286;48.098;11.590;2023-01-28T08:02:20;34.80;;;12.73;;
60432;SDS011;46286;48.098;11.590;2023-01-28T08:04:45;36.45;;;13.60;;
60432;SDS011;46286;48.098;11.590;2023-01-28T08:07:11;37.17;;;13.68;;
60432;SDS011;46286;48.098;11.590;2023-01-28T08:09:37;38.20;;;13.32;;
60432;SDS011;46286;48.098;11.590;2023-01-28T08:12:03;30.05;;;12.90;;
60432;SDS011;46286;48.098;11.590;2023-01-28T08:14:28;37.22;;;12.90;;
60432;SDS011;46286;48.098;11.590;2023-01-28T08:16:54;41.75;;;13.95;;
60432;SDS011;46286;48.098;11.590;2023-01-28T08:19:20;33.58;;;12.68;;
60432;SDS011;46286;48.098;11.590;2023-01-28T08:21:46;27.50;;;11.50;;
60432;SDS011;46286;48.098;11.590;2023-01-28T08:24:12;36.17;;;13.80;;
60432;SDS011;46286;48.098;11.590;2023-01-28T08:26:37;27.20;;;11.38;;
60432;SDS011;46286;48.098;11.590;2023-01-28T08:29:03;30.20;;;11.93;;
60432;SDS011;46286;48.098;11.590;2023-01-28T08:31:29;31.10;;;12.90;;
60432;SDS011;46286;48.098;11.590;2023-01-28T08:33:55;31.58;;;12.60;;
60432;SDS011;46286;48.098;11.590;2023-01-28T08:36:21;26.92;;;11.30;;
60432;SDS011;46286;48.098;11.590;2023-01-28T08:38:50;31.27;;;12.38;;
60432;SDS011;46286;48.098;11.590;2023-01-28T08:41:18;27.85;;;10.90;;
60432;SDS011;46286;48.098;11.590;2023-01-28T08:43:47;30.35;;;12.90;;
60432;SDS011;46286;48.098;11.590;2023-01-28T08:46:13;31.98;;;11.63;;
60432;SDS011;46286;48.098;11.590;2023-01-28T08:48:39;32.42;;;11.73;;
60432;SDS011;46286;48.098;11.590;2023-01-28T08:51:04;28.67;;;11.77;;
60432;SDS011;46286;48.098;11.590;2023-01-28T08:53:30;32.35;;;12.38;;
60432;SDS011;46286;48.098;11.590;2023-01-28T08:55:56;33.90;;;12.35;;
60432;SDS011;46286;48.098;11.590;2023-01-28T08:58:22;25.33;;;10.48;;
60432;SDS011;46286;48.098;11.590;2023-01-28T09:00:48;34.03;;;12.88;;
60432;SDS011;46286;48.098;11.590;2023-01-28T09:03:14;36.42;;;12.88;;
60432;SDS011;46286;48.098;11.590;2023-01-28T09:05:40;35.85;;;11.35;;
60432;SDS011;46286;48.098;11.590;2023-01-28T09:08:07;27.60;;;11.25;;
60432;SDS011;46286;48.098;11.590;2023-01-28T09:10:34;32.35;;;12.90;;
60432;SDS011;46286;48.098;11.590;2023-01-28T09:13:05;29.40;;;12.00;;
60432;SDS011;46286;48.098;11.590;2023-01-28T09:15:32;32.83;;;11.80;;
60432;SDS011;46286;48.098;11.590;2023-01-28T09:17:58;26.55;;;11.43;;
60432;SDS011;46286;48.098;11.590;2023-01-28T09:20:24;33.58;;;12.82;;
60432;SDS011;46286;48.098;11.590;2023-01-28T09:22:50;24.55;;;10.70;;
60432;SDS011;46286;48.098;11.590;2023-01-28T09:25:16;34.95;;;11.68;;
60432;SDS011;46286;48.098;11.590;2023-01-28T09:27:41;28.42;;;11.65;;
60432;SDS011;46286;48.098;11.590;2023-01-28T09:30:07;31.73;;;11.32;;
60432;SDS011;46286;48.098;11.590;2023-01-28T09:32:35;37.45;;;12.63;;
60432;SDS011;46286;48.098;11.590;2023-01-28T09:35:01;29.33;;;10.13;;
60432;SDS011;46286;48.098;11.590;2023-01-28T09:37:27;26.27;;;11.00;;
60432;SDS011;46286;48.098;11.590;2023-01-28T09:39:52;29.55;;;11.23;;
60432;SDS011;46286;48.098;11.590;2023-01-28T09:42:21;32.47;;;12.23;;
60432;SDS011;46286;48.098;11.590;2023-01-28T09:47:35;39.42;;;12.55;;
60432;SDS011;46286;48.098;11.590;2023-01-28T09:50:06;36.15;;;12.77;;
60432;SDS011;46286;48.098;11.590;2023-01-28T09:52:38;33.70;;;12.48;;
60432;SDS011;46286;48.098;11.590;2023-01-28T09:57:59;32.60;;;12.23;;
60432;SDS011;46286;48.098;11.590;2023-01-28T10:00:28;34.50;;;12.23;;
60432;SDS011;46286;48.098;11.590;2023-01-28T10:03:20;35.33;;;12.95;;
60432;SDS011;46286;48.098;11.590;2023-01-28T10:06:15;34.55;;;12.07;;
60432;SDS011;46286;48.098;11.590;2023-01-28T10:14:44;33.83;;;12.13;;
60432;SDS011;46286;48.098;11.590;2023-01-28T10:17:21;31.90;;;12.15;;
60432;SDS011;46286;48.098;11.590;2023-01-28T10:22:44;34.30;;;12.07;;
60432;SDS011;46286;48.098;11.590;2023-01-28T10:25:23;36.60;;;13.45;;
60432;SDS011;46286;48.098;11.590;2023-01-28T10:27:52;31.08;;;12.00;;
60432;SDS011;46286;48.098;11.590;2023-01-28T10:30:22;36.10;;;12.82;;
60432;SDS011;46286;48.098;11.590;2023-01-28T10:35:19;30.25;;;11.40;;
60432;SDS011;46286;48.098;11.590;2023-01-28T10:37:45;35.38;;;13.82;;
60432;SDS011;46286;48.098;11.590;2023-01-28T10:40:15;36.13;;;13.52;;
60432;SDS011;46286;48.098;11.590;2023-01-28T10:42:42;34.30;;;13.98;;
60432;SDS011;46286;48.098;11.590;2023-01-28T10:45:16;31.45;;;11.70;;
60432;SDS011;46286;48.098;11.590;2023-01-28T10:47:55;38.03;;;14.25;;
60432;SDS011;46286;48.098;11.590;2023-01-28T10:50:27;32.50;;;11.77;;
60432;SDS011;46286;48.098;11.590;2023-01-28T10:52:58;23.73;;;9.68;;
60432;SDS011;46286;48.098;11.590;2023-01-28T10:55:26;30.52;;;11.27;;
60432;SDS011;46286;48.098;11.590;2023-01-28T10:57:54;32.72;;;12.38;;
60432;SDS011;46286;48.098;11.590;2023-01-28T11:00:21;29.23;;;10.82;;
60432;SDS011;46286;48.098;11.590;2023-01-28T11:02:50;31.42;;;10.68;;
60432;SDS011;46286;48.098;11.590;2023-01-28T11:05:17;24.92;;;10.77;;
60432;SDS011;46286;48.098;11.590;2023-01-28T11:07:50;27.47;;;10.33;;
60432;SDS011;46286;48.098;11.590;2023-01-28T11:10:31;23.38;;;9.23;;
60432;SDS011;46286;48.098;11.590;2023-01-28T11:13:01;32.65;;;11.02;;
60432;SDS011;46286;48.098;11.590;2023-01-28T11:15:29;31.60;;;11.85;;
60432;SDS011;46286;48.098;11.590;2023-01-28T11:17:59;32.10;;;12.73;;
60432;SDS011;46286;48.098;11.590;2023-01-28T11:20:34;32.78;;;12.85;;
60432;SDS011;46286;48.098;11.590;2023-01-28T11:23:02;26.27;;;11.43;;
60432;SDS011;46286;48.098;11.590;2023-01-28T11:25:32;34.80;;;12.77;;
60432;SDS011;46286;48.098;11.590;2023-01-28T11:28:01;32.22;;;13.15;;
60432;SDS011;46286;48.098;11.590;2023-01-28T11:30:38;34.35;;;12.25;;
60432;SDS011;46286;48.098;11.590;2023-01-28T11:33:17;30.08;;;12.65;;
60432;SDS011;46286;48.098;11.590;2023-01-28T11:36:17;28.13;;;10.70;;
60432;SDS011;46286;48.098;11.590;2023-01-28T11:38:54;35.70;;;12.55;;
60432;SDS011;46286;48.098;11.590;2023-01-28T11:41:24;29.08;;;11.38;;
60432;SDS011;46286;48.098;11.590;2023-01-28T11:44:08;24.65;;;10.90;;
60432;SDS011;46286;48.098;11.590;2023-01-28T11:54:52;28.42;;;11.63;;
60432;SDS011;46286;48.098;11.590;2023-01-28T11:57:31;26.35;;;11.20;;
60432;SDS011;46286;48.098;11.590;2023-01-28T12:00:14;26.17;;;10.60;;
60432;SDS011;46286;48.098;11.590;2023-01-28T12:02:52;26.23;;;10.45;;
60432;SDS011;46286;48.098;11.590;2023-01-28T12:05:33;17.17;;;7.90;;
60432;SDS011;46286;48.098;11.590;2023-01-28T12:08:11;28.55;;;9.93;;
60432;SDS011;46286;48.098;11.590;2023-01-28T12:16:36;24.58;;;9.85;;
60432;SDS011;46286;48.098;11.590;2023-01-28T12:19:16;24.02;;;10.10;;
60432;SDS011;46286;48.098;11.590;2023-01-28T12:22:34;21.77;;;9.05;;
60432;SDS011;46286;48.098;11.590;2023-01-28T12:27:42;20.73;;;8.50;;
60432;SDS011;46286;48.098;11.590;2023-01-28T12:30:18;21.60;;;8.32;;
60432;SDS011;46286;48.098;11.590;2023-01-28T12:32:58;22.60;;;7.88;;
60432;SDS011;46286;48.098;11.590;2023-01-28T12:38:43;22.70;;;8.50;;
60432;SDS011;46286;48.098;11.590;2023-01-28T12:41:36;18.70;;;8.05;;
60432;SDS011;46286;48.098;11.590;2023-01-28T12:44:14;16.20;;;7.53;;
60432;SDS011;46286;48.098;11.590;2023-01-28T12:46:55;19.55;;;7.43;;
60432;SDS011;46286;48.098;11.590;2023-01-28T12:49:36;18.13;;;7.90;;
60432;SDS011;46286;48.098;11.590;2023-01-28T12:54:58;17.05;;;7.80;;
60432;SDS011;46286;48.098;11.590;2023-01-28T12:57:29;23.25;;;8.15;;
60432;SDS011;46286;48.098;11.590;2023-01-28T13:02:34;18.20;;;8.75;;
60432;SDS011;46286;48.098;11.590;2023-01-28T13:05:07;19.05;;;8.18;;
60432;SDS011;46286;48.098;11.590;2023-01-28T13:07:40;15.50;;;7.43;;
60432;SDS011;46286;48.098;11.590;2023-01-28T13:15:29;17.80;;;7.45;;
60432;SDS011;46286;48.098;11.590;2023-01-28T13:18:03;18.60;;;8.95;;
60432;SDS011;46286;48.098;11.590;2023-01-28T13:20:37;20.35;;;9.20;;
60432;SDS011;46286;48.098;11.590;2023-01-28T13:23:22;18.67;;;7.90;;
60432;SDS011;46286;48.098;11.590;2023-01-28T13:26:26;18.40;;;9.07;;
60432;SDS011;46286;48.098;11.590;2023-01-28T13:31:58;16.05;;;7.80;;
60432;SDS011;46286;48.098;11.590;2023-01-28T13:34:38;17.27;;;7.30;;
60432;SDS011;46286;48.098;11.590;2023-01-28T13:37:20;16.98;;;7.07;;
60432;SDS011;46286;48.098;11.590;2023-01-28T13:42:40;18.92;;;7.55;;
60432;SDS011;46286;48.098;11.590;2023-01-28T13:47:42;19.42;;;7.85;;
60432;SDS011;46286;48.098;11.590;2023-01-28T13:50:20;20.23;;;8.40;;
60432;SDS011;46286;48.098;11.590;2023-01-28T13:55:36;16.75;;;8.70;;
60432;SDS011;46286;48.098;11.590;2023-01-28T14:03:13;19.20;;;7.80;;
60432;SDS011;46286;48.098;11.590;2023-01-28T14:08:38;25.67;;;8.10;;
60432;SDS011;46286;48.098;11.590;2023-01-28T14:11:30;16.05;;;7.70;;
60432;SDS011;46286;48.098;11.590;2023-01-28T14:20:20;15.55;;;7.38;;
60432;SDS011;46286;48.098;11.590;2023-01-28T14:22:50;16.10;;;6.35;;
60432;SDS011;46286;48.098;11.590;2023-01-28T14:25:28;17.65;;;7.45;;
60432;SDS011;46286;48.098;11.590;2023-01-28T14:28:35;17.02;;;5.85;;
60432;SDS011;46286;48.098;11.590;2023-01-28T14:31:07;15.38;;;6.80;;
60432;SDS011;46286;48.098;11.590;2023-01-28T14:33:36;13.02;;;6.32;;
60432;SDS011;46286;48.098;11.590;2023-01-28T14:36:02;14.80;;;7.03;;
60432;SDS011;46286;48.098;11.590;2023-01-28T14:38:29;16.33;;;6.75;;
60432;SDS011;46286;48.098;11.590;2023-01-28T14:41:02;14.90;;;6.85;;
60432;SDS011;46286;48.098;11.590;2023-01-28T14:43:28;16.55;;;7.55;;
60432;SDS011;46286;48.098;11.590;2023-01-28T14:46:02;13.25;;;6.55;;
60432;SDS011;46286;48.098;11.590;2023-01-28T15:00:51;22.83;;;8.68;;
60432;SDS011;46286;48.098;11.590;2023-01-28T15:03:21;20.65;;;8.52;;
60432;SDS011;46286;48.098;11.590;2023-01-28T15:05:47;16.63;;;8.55;;
60432;SDS011;46286;48.098;11.590;2023-01-28T15:08:22;18.83;;;7.70;;
60432;SDS011;46286;48.098;11.590;2023-01-28T15:10:48;18.05;;;7.97;;
60432;SDS011;46286;48.098;11.590;2023-01-28T15:13:20;16.70;;;7.95;;
60432;SDS011;46286;48.098;11.590;2023-01-28T15:15:48;20.15;;;8.38;;
60432;SDS011;46286;48.098;11.590;2023-01-28T15:18:15;19.40;;;8.55;;
60432;SDS011;46286;48.098;11.590;2023-01-28T15:20:45;18.05;;;8.63;;
60432;SDS011;46286;48.098;11.590;2023-01-28T15:23:15;16.70;;;7.75;;
60432;SDS011;46286;48.098;11.590;2023-01-28T15:25:43;16.45;;;8.13;;
60432;SDS011;46286;48.098;11.590;2023-01-28T15:28:24;16.77;;;7.75;;
60432;SDS011;46286;48.098;11.590;2023-01-28T15:33:20;16.98;;;7.40;;
60432;SDS011;46286;48.098;11.590;2023-01-28T15:35:47;16.60;;;7.22;;
60432;SDS011;46286;48.098;11.590;2023-01-28T15:38:14;13.82;;;7.70;;
60432;SDS011;46286;48.098;11.590;2023-01-28T15:40:43;17.15;;;8.35;;
60432;SDS011;46286;48.098;11.590;2023-01-28T15:43:14;17.48;;;7.93;;
60432;SDS011;46286;48.098;11.590;2023-01-28T15:45:46;15.07;;;7.03;;
60432;SDS011;46286;48.098;11.590;2023-01-28T15:48:13;17.70;;;7.03;;
60432;SDS011;46286;48.098;11.590;2023-01-28T15:50:40;19.73;;;7.25;;
60432;SDS011;46286;48.098;11.590;2023-01-28T15:53:11;14.73;;;7.22;;
60432;SDS011;46286;48.098;11.590;2023-01-28T15:55:42;16.55;;;7.10;;
60432;SDS011;46286;48.098;11.590;2023-01-28T15:58:16;16.75;;;7.85;;
60432;SDS011;46286;48.098;11.590;2023-01-28T16:00:43;17.42;;;7.63;;
60432;SDS011;46286;48.098;11.590;2023-01-28T16:03:09;16.50;;;7.43;;
60432;SDS011;46286;48.098;11.590;2023-01-28T16:05:52;14.65;;;7.20;;
60432;SDS011;46286;48.098;11.590;2023-01-28T16:08:28;16.58;;;7.70;;
60432;SDS011;46286;48.098;11.590;2023-01-28T16:11:02;18.30;;;7.43;;
60432;SDS011;46286;48.098;11.590;2023-01-28T16:13:29;15.73;;;6.85;;
60432;SDS011;46286;48.098;11.590;2023-01-28T16:15:57;16.35;;;7.00;;